createdAt,value
2022-10-30T00:01:27.636Z,7.33
2022-10-30T00:04:35.970Z,8.87
2022-10-30T00:07:44.427Z,4.70
2022-10-30T00:10:54.624Z,6.53
2022-10-30T00:14:03.005Z,5.80
2022-10-30T00:17:11.284Z,4.60
2022-10-30T00:20:19.745Z,7.00
2022-10-30T00:23:28.014Z,4.37
2022-10-30T00:26:37.720Z,8.90
2022-10-30T00:29:46.163Z,7.90
2022-10-30T00:32:54.543Z,6.30
2022-10-30T00:36:03.463Z,2.70
2022-10-30T00:39:12.116Z,7.00
2022-10-30T00:42:21.861Z,5.03
2022-10-30T00:45:30.139Z,6.47
2022-10-30T00:48:38.701Z,6.20
2022-10-30T00:51:50.994Z,6.53
2022-10-30T00:55:03.241Z,3.63
2022-10-30T00:58:16.664Z,5.63
2022-10-30T01:01:27.826Z,6.80
2022-10-30T01:04:39.210Z,6.93
2022-10-30T01:07:47.524Z,10.50
2022-10-30T01:10:58.549Z,6.60
2022-10-30T01:14:11.429Z,6.27
2022-10-30T01:17:38.878Z,4.80
2022-10-30T01:21:24.782Z,7.80
2022-10-30T01:24:45.382Z,5.73
2022-10-30T01:28:02.066Z,4.87
2022-10-30T01:31:26.444Z,5.60
2022-10-30T01:34:44.401Z,5.73
2022-10-30T01:37:59.014Z,4.60
2022-10-30T01:41:07.614Z,5.40
2022-10-30T01:44:19.858Z,8.17
2022-10-30T01:47:43.473Z,7.03
2022-10-30T01:50:58.755Z,6.20
2022-10-30T01:54:19.244Z,5.73
2022-10-30T01:57:36.482Z,4.87
2022-10-30T02:00:49.846Z,6.10
2022-10-30T02:03:59.636Z,5.30
2022-10-30T02:07:08.155Z,4.83
2022-10-30T02:10:22.814Z,6.17
2022-10-30T02:13:31.767Z,8.53
2022-10-30T02:16:46.059Z,5.63
2022-10-30T02:19:55.725Z,4.33
2022-10-30T02:23:07.357Z,5.07
2022-10-30T02:26:16.428Z,5.00
2022-10-30T02:29:24.865Z,5.97
2022-10-30T02:32:33.258Z,8.20
2022-10-30T02:35:41.582Z,6.17
2022-10-30T02:38:51.273Z,5.30
2022-10-30T02:42:01.997Z,7.63
2022-10-30T02:45:11.504Z,6.33
2022-10-30T02:48:19.868Z,6.03
2022-10-30T02:51:29.390Z,3.23
2022-10-30T02:54:39.109Z,8.33
2022-10-30T02:57:47.515Z,4.80
2022-10-30T03:00:55.951Z,6.43
2022-10-30T03:04:04.472Z,4.47
2022-10-30T03:07:12.965Z,3.80
2022-10-30T03:10:22.891Z,3.70
2022-10-30T03:13:33.058Z,3.87
2022-10-30T03:16:41.402Z,4.60
2022-10-30T03:19:49.698Z,6.03
2022-10-30T03:22:58.078Z,1.70
2022-10-30T03:26:08.276Z,5.23
2022-10-30T03:29:30.347Z,5.80
2022-10-30T03:32:38.651Z,7.77
2022-10-30T03:35:47.173Z,2.93
2022-10-30T03:38:55.455Z,4.43
2022-10-30T03:42:07.271Z,2.97
2022-10-30T03:45:15.765Z,4.73
2022-10-30T03:48:25.688Z,5.53
2022-10-30T03:51:35.020Z,4.80
2022-10-30T03:54:43.378Z,5.30
2022-10-30T03:57:56.475Z,4.03
2022-10-30T04:01:07.630Z,6.77
2022-10-30T04:04:19.908Z,5.33
2022-10-30T04:07:29.517Z,5.77
2022-10-30T04:10:37.987Z,7.00
2022-10-30T04:13:51.813Z,4.37
2022-10-30T04:17:00.303Z,2.87
2022-10-30T04:20:09.956Z,7.33
2022-10-30T04:23:20.898Z,4.53
2022-10-30T04:26:29.970Z,8.27
2022-10-30T04:29:42.117Z,4.90
2022-10-30T04:32:51.353Z,6.33
2022-10-30T04:36:00.191Z,5.33
2022-10-30T04:39:08.707Z,7.03
2022-10-30T04:42:17.081Z,6.60
2022-10-30T04:45:27.280Z,5.10
2022-10-30T04:48:37.295Z,5.27
2022-10-30T04:51:46.542Z,6.27
2022-10-30T04:54:55.010Z,3.70
2022-10-30T04:58:04.121Z,6.60
2022-10-30T05:01:17.841Z,5.53
2022-10-30T05:04:27.059Z,6.57
2022-10-30T05:07:35.371Z,5.07
2022-10-30T05:10:43.704Z,6.03
2022-10-30T05:13:52.112Z,4.43
2022-10-30T05:17:01.818Z,6.73
2022-10-30T05:20:14.745Z,4.40
2022-10-30T05:23:24.730Z,5.50
2022-10-30T05:26:33.454Z,6.10
2022-10-30T05:29:41.717Z,4.33
2022-10-30T05:32:58.486Z,4.03
2022-10-30T05:36:08.276Z,6.97
2022-10-30T05:39:16.664Z,2.50
2022-10-30T05:42:28.565Z,3.10
2022-10-30T05:45:39.705Z,5.60
2022-10-30T05:48:50.510Z,5.33
2022-10-30T05:51:59.526Z,7.20
2022-10-30T05:55:08.978Z,6.53
2022-10-30T05:58:52.742Z,4.87
2022-10-30T06:02:01.208Z,3.67
2022-10-30T06:05:11.279Z,4.30
2022-10-30T06:08:20.185Z,2.93
2022-10-30T06:11:31.105Z,4.60
2022-10-30T06:14:41.166Z,6.27
2022-10-30T06:17:49.738Z,4.70
2022-10-30T06:21:19.503Z,5.27
2022-10-30T06:24:46.145Z,4.83
2022-10-30T06:28:04.571Z,4.53
2022-10-30T06:31:13.985Z,2.90
2022-10-30T06:34:22.358Z,6.07
2022-10-30T06:37:33.379Z,4.30
2022-10-30T06:40:47.548Z,4.47
2022-10-30T06:44:04.497Z,4.40
2022-10-30T06:47:13.926Z,7.43
2022-10-30T06:50:24.420Z,5.20
2022-10-30T06:53:34.680Z,6.47
2022-10-30T06:57:21.452Z,3.50
2022-10-30T07:00:46.016Z,5.27
2022-10-30T07:04:03.766Z,8.10
2022-10-30T07:07:12.923Z,3.30
2022-10-30T07:10:22.680Z,2.77
2022-10-30T07:14:00.516Z,3.60
2022-10-30T07:17:31.678Z,4.33
2022-10-30T07:20:44.200Z,8.03
2022-10-30T07:23:52.513Z,9.57
2022-10-30T07:27:10.528Z,7.07
2022-10-30T07:34:00.943Z,8.20
2022-10-30T07:37:20.873Z,12.37
2022-10-30T07:40:53.558Z,7.27
2022-10-30T07:44:21.833Z,9.10
2022-10-30T07:47:51.166Z,11.83
2022-10-30T07:51:07.333Z,5.93
2022-10-30T07:54:16.190Z,9.23
2022-10-30T07:57:25.174Z,12.43
2022-10-30T08:01:13.767Z,7.97
2022-10-30T08:04:25.237Z,6.17
2022-10-30T08:07:40.564Z,11.93
2022-10-30T08:10:49.105Z,9.23
2022-10-30T08:13:57.966Z,12.60
2022-10-30T08:17:10.391Z,8.63
2022-10-30T08:20:21.352Z,6.83
2022-10-30T08:23:30.933Z,9.60
2022-10-30T08:26:43.563Z,9.50
2022-10-30T08:29:53.312Z,11.67
2022-10-30T08:33:04.913Z,10.13
2022-10-30T08:36:39.431Z,8.17
2022-10-30T08:39:48.849Z,8.10
2022-10-30T08:43:17.452Z,10.00
2022-10-30T08:46:25.916Z,7.23
2022-10-30T08:49:35.593Z,9.87
2022-10-30T08:52:44.694Z,5.27
2022-10-30T08:55:53.862Z,4.13
2022-10-30T08:59:21.393Z,10.47
2022-10-30T09:02:32.028Z,6.30
2022-10-30T09:06:01.583Z,7.87
2022-10-30T09:09:16.298Z,8.47
2022-10-30T09:12:28.039Z,6.20
2022-10-30T09:15:37.071Z,4.63
2022-10-30T09:18:46.558Z,6.97
2022-10-30T09:21:56.532Z,6.03
2022-10-30T09:25:05.524Z,5.60
2022-10-30T09:28:27.877Z,6.37
2022-10-30T09:31:54.913Z,7.67
2022-10-30T09:35:06.257Z,5.97
2022-10-30T09:38:20.295Z,7.83
2022-10-30T09:41:50.174Z,4.60
2022-10-30T09:45:28.827Z,5.23
2022-10-30T09:52:30.665Z,7.90
2022-10-30T09:55:48.415Z,3.97
2022-10-30T09:59:05.023Z,6.50
2022-10-30T10:02:33.659Z,4.50
2022-10-30T10:05:46.189Z,4.83
2022-10-30T10:09:28.181Z,6.13
2022-10-30T10:12:44.198Z,4.67
2022-10-30T10:15:57.167Z,4.80
2022-10-30T10:19:13.465Z,5.00
2022-10-30T10:22:25.082Z,4.20
2022-10-30T10:25:33.669Z,3.67
2022-10-30T10:28:58.840Z,8.03
2022-10-30T10:32:50.221Z,5.93
2022-10-30T10:36:10.101Z,6.77
2022-10-30T10:39:40.393Z,5.23
2022-10-30T10:43:02.317Z,4.20
2022-10-30T10:46:35.116Z,5.13
2022-10-30T10:50:05.885Z,5.00
2022-10-30T10:53:20.987Z,6.23
2022-10-30T10:56:34.272Z,4.20
2022-10-30T10:59:47.649Z,4.47
2022-10-30T11:03:04.943Z,5.83
2022-10-30T11:06:21.651Z,4.20
2022-10-30T11:09:30.048Z,4.88
2022-10-30T11:12:38.876Z,5.83
2022-10-30T11:15:59.313Z,3.57
2022-10-30T11:19:10.653Z,3.97
2022-10-30T11:22:26.900Z,3.20
2022-10-30T11:25:37.301Z,3.85
2022-10-30T11:28:51.514Z,3.03
2022-10-30T11:32:04.748Z,2.63
2022-10-30T11:35:16.554Z,3.67
2022-10-30T11:38:28.329Z,3.42
2022-10-30T11:41:36.619Z,2.22
2022-10-30T11:44:46.938Z,4.43
2022-10-30T11:47:58.289Z,2.35
2022-10-30T11:51:12.751Z,1.95
2022-10-30T11:54:23.267Z,2.67
2022-10-30T11:57:37.348Z,1.80
2022-10-30T12:00:45.737Z,1.50
2022-10-30T12:03:55.296Z,2.33
2022-10-30T12:07:21.642Z,2.73
2022-10-30T12:10:31.593Z,3.83
2022-10-30T12:13:41.526Z,1.95
2022-10-30T12:16:51.806Z,1.97
2022-10-30T12:20:00.417Z,1.80
2022-10-30T12:23:19.457Z,1.67
2022-10-30T12:26:29.604Z,1.30
2022-10-30T12:33:19.077Z,1.37
2022-10-30T12:36:33.516Z,1.40
2022-10-30T12:39:53.609Z,2.23
2022-10-30T12:43:06.761Z,1.73
2022-10-30T12:46:33.288Z,1.40
2022-10-30T12:49:44.605Z,2.70
2022-10-30T12:52:59.632Z,1.90
2022-10-30T12:56:14.444Z,1.37
2022-10-30T12:59:33.362Z,1.60
2022-10-30T13:02:49.036Z,1.30
2022-10-30T13:06:02.392Z,1.47
2022-10-30T13:09:18.154Z,2.73
2022-10-30T13:12:33.511Z,1.20
2022-10-30T13:15:48.083Z,1.50
2022-10-30T13:18:58.080Z,1.10
2022-10-30T13:22:15.308Z,1.33
2022-10-30T13:25:29.457Z,1.30
2022-10-30T13:28:44.994Z,2.03
2022-10-30T13:32:13.726Z,1.33
2022-10-30T13:35:37.640Z,1.50
2022-10-30T13:38:53.602Z,1.70
2022-10-30T13:42:20.182Z,2.07
2022-10-30T13:45:48.839Z,1.87
2022-10-30T13:49:14.211Z,1.50
2022-10-30T13:55:38.980Z,1.80
2022-10-30T13:59:00.205Z,1.03
2022-10-30T14:02:18.098Z,1.03
2022-10-30T14:05:33.889Z,1.10
2022-10-30T14:08:47.677Z,0.90
2022-10-30T14:11:56.380Z,1.27
2022-10-30T14:15:07.134Z,1.90
2022-10-30T14:18:43.648Z,1.30
2022-10-30T14:21:56.105Z,1.90
2022-10-30T14:25:14.555Z,1.17
2022-10-30T14:28:23.268Z,1.73
2022-10-30T14:31:36.664Z,2.27
2022-10-30T14:34:48.052Z,1.13
2022-10-30T14:37:58.177Z,1.30
2022-10-30T14:41:41.617Z,1.00
2022-10-30T14:45:12.080Z,2.37
2022-10-30T14:48:30.504Z,1.50
2022-10-30T14:51:45.747Z,0.90
2022-10-30T14:55:07.278Z,1.00
2022-10-30T14:58:25.522Z,1.13
2022-10-30T15:01:39.246Z,1.20
2022-10-30T15:05:05.484Z,1.93
2022-10-30T15:08:42.345Z,1.40
2022-10-30T15:12:10.457Z,2.00
2022-10-30T15:15:20.209Z,0.80
2022-10-30T15:18:30.882Z,1.23
2022-10-30T15:21:44.519Z,1.43
2022-10-30T15:24:54.485Z,1.93
2022-10-30T15:28:03.076Z,2.03
2022-10-30T15:31:23.527Z,1.30
2022-10-30T15:34:34.248Z,1.40
2022-10-30T15:38:00.586Z,2.70
2022-10-30T15:41:15.318Z,1.33
2022-10-30T15:44:30.587Z,1.40
2022-10-30T15:47:47.710Z,1.33
2022-10-30T15:51:02.219Z,1.37
2022-10-30T15:54:14.150Z,1.03
2022-10-30T15:58:01.838Z,0.80
2022-10-30T16:01:00.056Z,1.33
2022-10-30T16:04:16.602Z,2.33
2022-10-30T16:07:26.975Z,1.00
2022-10-30T16:10:36.709Z,0.93
2022-10-30T16:13:46.504Z,0.90
2022-10-30T16:16:55.092Z,0.80
2022-10-30T16:20:06.071Z,1.20
2022-10-30T16:23:15.415Z,1.90
2022-10-30T16:26:33.061Z,1.03
2022-10-30T16:29:50.205Z,1.83
2022-10-30T16:32:59.826Z,2.60
2022-10-30T16:36:12.602Z,2.33
2022-10-30T16:39:22.532Z,2.03
2022-10-30T16:42:30.974Z,1.37
2022-10-30T16:45:50.924Z,1.53
2022-10-30T16:49:01.853Z,1.53
2022-10-30T16:52:15.589Z,1.43
2022-10-30T16:55:24.906Z,1.43
2022-10-30T16:58:33.490Z,1.70
2022-10-30T17:01:44.761Z,1.30
2022-10-30T17:04:58.200Z,1.80
2022-10-30T17:08:26.834Z,1.70
2022-10-30T17:11:37.250Z,1.90
2022-10-30T17:14:49.704Z,1.40
2022-10-30T17:18:16.191Z,2.00
2022-10-30T17:21:29.148Z,1.97
2022-10-30T17:24:39.571Z,1.40
2022-10-30T17:27:50.379Z,2.87
2022-10-30T17:30:58.754Z,2.20
2022-10-30T17:34:16.474Z,2.50
2022-10-30T17:37:24.748Z,1.80
2022-10-30T17:40:33.121Z,1.97
2022-10-30T17:43:50.509Z,2.80
2022-10-30T17:46:58.824Z,2.17
2022-10-30T17:50:09.090Z,2.30
2022-10-30T17:53:21.734Z,2.53
2022-10-30T17:56:34.307Z,2.20
2022-10-30T17:59:43.675Z,2.30
2022-10-30T18:02:52.046Z,2.30
2022-10-30T18:06:03.187Z,2.40
2022-10-30T18:09:12.732Z,3.13
2022-10-30T18:12:20.988Z,2.40
2022-10-30T18:15:32.406Z,1.90
2022-10-30T18:18:40.922Z,2.77
2022-10-30T18:21:51.893Z,2.47
2022-10-30T18:25:00.199Z,2.83
2022-10-30T18:28:08.623Z,4.50
2022-10-30T18:31:19.125Z,3.83
2022-10-30T18:34:27.514Z,4.47
2022-10-30T18:37:37.154Z,5.63
2022-10-30T18:40:47.966Z,8.97
2022-10-30T18:43:56.282Z,6.27
2022-10-30T18:47:06.689Z,10.20
2022-10-30T18:50:15.078Z,10.33
2022-10-30T18:53:24.811Z,9.63
2022-10-30T18:56:33.513Z,11.50
2022-10-30T18:59:41.833Z,10.03
2022-10-30T19:02:50.537Z,9.50
2022-10-30T19:05:59.041Z,9.70
2022-10-30T19:09:08.749Z,10.70
2022-10-30T19:12:17.153Z,10.20
2022-10-30T19:15:28.823Z,8.43
2022-10-30T19:18:38.201Z,10.33
2022-10-30T19:21:46.466Z,8.43
2022-10-30T19:24:56.148Z,9.33
2022-10-30T19:28:04.569Z,7.17
2022-10-30T19:31:15.818Z,7.60
2022-10-30T19:34:24.235Z,7.83
2022-10-30T19:37:32.907Z,6.67
2022-10-30T19:40:44.321Z,11.30
2022-10-30T19:43:52.811Z,8.10
2022-10-30T19:47:01.071Z,12.07
2022-10-30T19:50:23.259Z,9.10
2022-10-30T19:53:31.841Z,9.13
2022-10-30T19:56:43.106Z,5.87
2022-10-30T19:59:51.479Z,6.67
2022-10-30T20:03:00.940Z,9.57
2022-10-30T20:06:11.793Z,6.97
2022-10-30T20:09:20.136Z,6.77
2022-10-30T20:12:29.982Z,8.67
2022-10-30T20:15:38.714Z,10.30
2022-10-30T20:18:47.066Z,10.53
2022-10-30T20:21:55.551Z,12.80
2022-10-30T20:25:03.917Z,9.57
2022-10-30T20:28:23.398Z,11.17
2022-10-30T20:31:31.712Z,12.07
2022-10-30T20:34:40.107Z,11.93
2022-10-30T20:37:58.896Z,9.77
2022-10-30T20:41:08.549Z,14.00
2022-10-30T20:44:18.199Z,8.67
2022-10-30T20:47:26.470Z,12.70
2022-10-30T20:50:34.784Z,12.67
2022-10-30T20:53:43.053Z,10.17
2022-10-30T20:56:51.354Z,9.53
2022-10-30T21:00:01.557Z,9.83
2022-10-30T21:03:14.402Z,11.37
2022-10-30T21:06:22.732Z,9.47
2022-10-30T21:09:31.018Z,11.03
2022-10-30T21:12:39.445Z,11.17
2022-10-30T21:15:51.316Z,12.07
2022-10-30T21:18:59.612Z,13.90
2022-10-30T21:22:07.989Z,11.40
2022-10-30T21:25:16.485Z,16.10
2022-10-30T21:28:24.887Z,16.77
2022-10-30T21:31:34.809Z,13.90
2022-10-30T21:34:43.224Z,13.20
2022-10-30T21:37:51.605Z,15.20
2022-10-30T21:41:00.144Z,16.50
2022-10-30T21:44:08.545Z,16.50
2022-10-30T21:47:18.204Z,16.20
2022-10-30T21:50:26.514Z,15.97
2022-10-30T21:53:34.783Z,20.30
2022-10-30T21:56:43.162Z,19.00
2022-10-30T21:59:51.507Z,19.33
2022-10-30T22:03:01.164Z,22.87
2022-10-30T22:06:10.985Z,21.10
2022-10-30T22:09:19.944Z,22.37
2022-10-30T22:12:28.325Z,19.20
2022-10-30T22:15:36.645Z,24.97
2022-10-30T22:18:46.247Z,22.40
2022-10-30T22:21:54.537Z,21.87
2022-10-30T22:25:02.840Z,21.60
2022-10-30T22:28:11.179Z,20.80
2022-10-30T22:31:20.421Z,20.27
2022-10-30T22:34:30.096Z,23.33
2022-10-30T22:37:38.475Z,21.57
2022-10-30T22:40:46.768Z,21.53
2022-10-30T22:43:56.143Z,20.60
2022-10-30T22:47:04.461Z,22.83
2022-10-30T22:50:14.110Z,23.87
2022-10-30T22:53:22.453Z,21.10
2022-10-30T22:56:32.528Z,21.33
2022-10-30T22:59:40.852Z,20.67
2022-10-30T23:02:49.290Z,24.20
2022-10-30T23:05:59.829Z,21.73
2022-10-30T23:09:12.451Z,20.60
2022-10-30T23:12:20.809Z,22.13
2022-10-30T23:15:29.081Z,19.87
2022-10-30T23:18:37.385Z,22.27
2022-10-30T23:21:47.017Z,23.17
2022-10-30T23:24:55.585Z,20.90
2022-10-30T23:28:04.212Z,21.70
2022-10-30T23:31:18.699Z,21.53
2022-10-30T23:34:27.024Z,22.03
2022-10-30T23:37:36.854Z,19.90
2022-10-30T23:40:48.757Z,23.17
2022-10-30T23:43:58.305Z,21.17
2022-10-30T23:47:06.572Z,22.10
2022-10-30T23:50:15.041Z,23.00
2022-10-30T23:53:24.786Z,21.40
2022-10-30T23:56:33.210Z,19.77
2022-10-30T23:59:41.528Z,25.27
